createdAt,value
2019-02-22T00:02:15.992Z,10.40
2019-02-22T00:04:44.811Z,10.40
2019-02-22T00:07:13.644Z,10.60
2019-02-22T00:09:49.465Z,10.50
2019-02-22T00:12:13.016Z,10.40
2019-02-22T00:14:41.863Z,10.40
2019-02-22T00:17:10.691Z,10.50
2019-02-22T00:19:39.507Z,10.60
2019-02-22T00:22:08.384Z,10.50
2019-02-22T00:24:37.254Z,10.60
2019-02-22T00:27:06.025Z,10.60
2019-02-22T00:29:34.818Z,10.50
2019-02-22T00:32:03.676Z,10.50
2019-02-22T00:34:32.505Z,10.40
2019-02-22T00:37:01.346Z,10.30
2019-02-22T00:39:30.150Z,10.40
2019-02-22T00:41:58.946Z,10.30
2019-02-22T00:44:27.831Z,10.30
2019-02-22T00:46:56.688Z,10.30
2019-02-22T00:49:25.592Z,10.30
2019-02-22T00:51:54.443Z,10.30
2019-02-22T00:54:23.307Z,10.40
2019-02-22T00:56:52.091Z,10.30
2019-02-22T00:59:20.905Z,10.30
2019-02-22T01:01:49.681Z,10.40
2019-02-22T01:04:18.527Z,10.50
2019-02-22T01:06:47.336Z,10.40
2019-02-22T01:09:16.201Z,10.40
2019-02-22T01:11:45.020Z,10.50
2019-02-22T01:14:13.834Z,10.50
2019-02-22T01:16:42.637Z,10.60
2019-02-22T01:19:11.425Z,10.50
2019-02-22T01:21:40.284Z,10.50
2019-02-22T01:24:09.158Z,10.50
2019-02-22T01:26:37.945Z,10.40
2019-02-22T01:29:06.809Z,10.40
2019-02-22T01:34:19.271Z,10.50
2019-02-22T01:36:48.099Z,10.50
2019-02-22T01:39:16.939Z,10.60
2019-02-22T01:41:45.777Z,10.60
2019-02-22T01:44:20.100Z,10.50
2019-02-22T01:46:49.056Z,10.50
2019-02-22T01:49:17.856Z,10.50
2019-02-22T01:51:46.620Z,10.50
2019-02-22T01:54:15.430Z,10.40
2019-02-22T01:56:44.237Z,10.40
2019-02-22T01:59:13.030Z,10.30
2019-02-22T02:01:41.910Z,10.50
2019-02-22T02:04:10.691Z,10.20
2019-02-22T02:06:39.485Z,10.30
2019-02-22T02:09:08.452Z,10.40
2019-02-22T02:11:37.320Z,10.50
2019-02-22T02:14:06.302Z,10.50
2019-02-22T02:16:35.121Z,10.30
2019-02-22T02:19:04.027Z,10.40
2019-02-22T02:21:32.812Z,10.40
2019-02-22T02:24:01.578Z,10.40
2019-02-22T02:26:30.385Z,10.40
2019-02-22T02:28:59.185Z,10.40
2019-02-22T02:31:28.057Z,10.30
2019-02-22T02:33:56.839Z,10.30
2019-02-22T02:36:25.710Z,10.30
2019-02-22T02:38:54.571Z,10.30
2019-02-22T02:41:23.408Z,10.20
2019-02-22T02:43:52.239Z,10.30
2019-02-22T02:46:21.076Z,10.30
2019-02-22T02:48:49.854Z,10.40
2019-02-22T02:51:18.664Z,10.30
2019-02-22T02:53:47.509Z,10.40
2019-02-22T02:56:16.288Z,10.30
2019-02-22T02:58:45.078Z,10.30
2019-02-22T03:01:13.885Z,10.30
2019-02-22T03:03:42.773Z,10.30
2019-02-22T03:06:18.814Z,10.30
2019-02-22T03:08:47.576Z,10.30
2019-02-22T03:11:20.585Z,10.30
2019-02-22T03:13:46.934Z,10.30
2019-02-22T03:16:16.044Z,10.30
2019-02-22T03:18:45.115Z,10.20
2019-02-22T03:21:13.938Z,10.00
2019-02-22T03:23:42.695Z,10.00
2019-02-22T03:26:11.489Z,10.10
2019-02-22T03:28:40.304Z,10.20
2019-02-22T03:31:09.170Z,10.10
2019-02-22T03:33:38.615Z,10.00
2019-02-22T03:36:07.489Z,10.00
2019-02-22T03:38:36.269Z,9.80
2019-02-22T03:41:05.175Z,9.60
2019-02-22T03:43:34.038Z,9.50
2019-02-22T03:46:02.900Z,9.50
2019-02-22T03:48:31.754Z,9.60
2019-02-22T03:51:00.639Z,9.70
2019-02-22T03:53:33.307Z,9.60
2019-02-22T03:56:02.125Z,9.50
2019-02-22T03:58:31.006Z,9.30
2019-02-22T04:00:59.853Z,9.20
2019-02-22T04:03:28.683Z,9.30
2019-02-22T04:05:57.605Z,9.20
2019-02-22T04:08:26.414Z,9.10
2019-02-22T04:10:55.252Z,9.10
2019-02-22T04:13:24.111Z,8.90
2019-02-22T04:15:52.907Z,8.90
2019-02-22T04:18:21.738Z,8.90
2019-02-22T04:20:51.997Z,8.80
2019-02-22T04:23:20.797Z,8.80
2019-02-22T04:25:49.656Z,8.60
2019-02-22T04:28:18.487Z,8.40
2019-02-22T04:30:47.252Z,8.40
2019-02-22T04:33:16.129Z,8.20
2019-02-22T04:35:45.018Z,8.10
2019-02-22T04:38:13.793Z,7.80
2019-02-22T04:40:42.583Z,7.90
2019-02-22T04:43:11.338Z,7.70
2019-02-22T04:45:40.225Z,7.80
2019-02-22T04:48:09.125Z,7.90
2019-02-22T04:50:38.083Z,7.80
2019-02-22T04:53:06.936Z,7.90
2019-02-22T04:55:35.787Z,7.30
2019-02-22T04:58:04.581Z,7.10
2019-02-22T05:00:33.381Z,7.10
2019-02-22T05:03:02.224Z,7.00
2019-02-22T05:05:31.041Z,6.70
2019-02-22T05:07:59.903Z,6.40
2019-02-22T05:10:28.690Z,6.40
2019-02-22T05:12:57.532Z,6.30
2019-02-22T05:15:26.394Z,6.40
2019-02-22T05:17:55.200Z,6.30
2019-02-22T05:20:24.035Z,6.40
2019-02-22T05:23:03.307Z,6.30
2019-02-22T05:25:23.482Z,6.40
2019-02-22T05:27:52.260Z,6.40
2019-02-22T05:30:21.038Z,6.20
2019-02-22T05:32:49.969Z,6.40
2019-02-22T05:35:18.859Z,6.50
2019-02-22T05:37:47.777Z,6.40
2019-02-22T05:40:16.765Z,6.40
2019-02-22T05:42:45.631Z,6.50
2019-02-22T05:45:14.483Z,6.40
2019-02-22T05:47:43.292Z,6.30
2019-02-22T05:50:12.139Z,6.10
2019-02-22T05:52:40.928Z,6.10
2019-02-22T05:55:09.725Z,6.10
2019-02-22T05:57:38.577Z,6.00
2019-02-22T06:00:07.664Z,6.00
2019-02-22T06:02:36.554Z,6.00
2019-02-22T06:05:05.765Z,6.20
2019-02-22T06:07:34.605Z,6.00
2019-02-22T06:10:03.619Z,6.10
2019-02-22T06:12:34.909Z,6.10
2019-02-22T06:15:03.151Z,6.20
2019-02-22T06:17:32.013Z,6.10
2019-02-22T06:20:00.787Z,6.10
2019-02-22T06:22:30.128Z,6.10
2019-02-22T06:24:59.085Z,6.20
2019-02-22T06:27:27.889Z,6.10
2019-02-22T06:29:56.701Z,5.90
2019-02-22T06:32:28.186Z,6.00
2019-02-22T06:34:57.111Z,6.10
2019-02-22T06:37:26.043Z,6.20
2019-02-22T06:39:54.919Z,6.20
2019-02-22T06:42:23.834Z,6.20
2019-02-22T06:44:52.711Z,6.20
2019-02-22T06:47:22.872Z,6.10
2019-02-22T06:49:51.909Z,6.00
2019-02-22T06:52:20.800Z,5.90
2019-02-22T06:54:49.654Z,5.80
2019-02-22T06:57:18.439Z,5.70
2019-02-22T06:59:47.325Z,5.50
2019-02-22T07:02:16.126Z,5.40
2019-02-22T07:04:44.945Z,5.50
2019-02-22T07:07:13.758Z,5.60
2019-02-22T07:09:42.608Z,5.60
2019-02-22T07:12:15.579Z,5.70
2019-02-22T07:14:44.386Z,5.60
2019-02-22T07:17:13.365Z,5.40
2019-02-22T07:19:42.219Z,5.30
2019-02-22T07:22:11.085Z,5.30
2019-02-22T07:24:39.910Z,5.40
2019-02-22T07:27:08.702Z,5.30
2019-02-22T07:29:37.630Z,5.30
2019-02-22T07:32:07.006Z,5.30
2019-02-22T07:34:35.832Z,5.20
2019-02-22T07:37:04.648Z,5.10
2019-02-22T07:39:33.467Z,4.90
2019-02-22T07:42:02.336Z,4.70
2019-02-22T07:44:31.512Z,4.70
2019-02-22T07:47:00.355Z,4.70
2019-02-22T07:49:29.215Z,4.70
2019-02-22T07:51:58.380Z,4.50
2019-02-22T07:54:27.235Z,4.70
2019-02-22T07:56:56.101Z,4.70
2019-02-22T07:59:25.010Z,4.70
2019-02-22T08:01:53.839Z,4.90
2019-02-22T08:04:22.792Z,5.10
2019-02-22T08:06:51.867Z,4.90
2019-02-22T08:09:20.626Z,5.00
2019-02-22T08:11:49.507Z,5.10
2019-02-22T08:14:18.261Z,4.90
2019-02-22T08:16:47.044Z,4.60
2019-02-22T08:19:15.884Z,4.60
2019-02-22T08:21:44.721Z,4.80
2019-02-22T08:24:13.584Z,4.80
2019-02-22T08:26:42.403Z,4.90
2019-02-22T08:29:11.324Z,5.10
2019-02-22T08:31:40.130Z,5.10
2019-02-22T08:34:09.057Z,5.10
2019-02-22T08:36:37.908Z,5.10
2019-02-22T08:39:06.762Z,5.20
2019-02-22T08:41:35.647Z,5.40
2019-02-22T08:44:04.800Z,5.30
2019-02-22T08:46:33.663Z,5.10
2019-02-22T08:49:02.598Z,4.80
2019-02-22T08:51:31.431Z,4.70
2019-02-22T08:54:00.287Z,4.80
2019-02-22T08:56:29.201Z,5.10
2019-02-22T08:58:58.138Z,5.10
2019-02-22T09:01:26.979Z,5.10
2019-02-22T09:03:55.773Z,5.20
2019-02-22T09:06:24.747Z,5.10
2019-02-22T09:08:53.644Z,4.80
2019-02-22T09:11:23.722Z,4.70
2019-02-22T09:13:52.598Z,4.80
2019-02-22T09:16:21.432Z,4.80
2019-02-22T09:18:50.274Z,4.90
2019-02-22T09:21:19.135Z,4.90
2019-02-22T09:23:48.055Z,4.90
2019-02-22T09:26:16.915Z,5.00
2019-02-22T09:28:45.737Z,5.10
2019-02-22T09:31:14.646Z,5.20
2019-02-22T09:33:43.500Z,4.90
2019-02-22T09:36:12.328Z,4.90
2019-02-22T09:38:41.170Z,4.90
2019-02-22T09:41:10.128Z,5.20
2019-02-22T09:43:39.065Z,5.10
2019-02-22T09:46:07.906Z,5.10
2019-02-22T09:48:36.888Z,5.10
2019-02-22T09:51:05.663Z,5.00
2019-02-22T09:53:34.489Z,4.90
2019-02-22T09:56:03.306Z,4.80
2019-02-22T09:58:32.155Z,4.90
2019-02-22T10:01:01.000Z,5.00
2019-02-22T10:03:29.753Z,5.20
2019-02-22T10:05:58.522Z,5.30
2019-02-22T10:08:27.366Z,5.50
2019-02-22T10:10:56.194Z,5.50
2019-02-22T10:13:24.999Z,5.50
2019-02-22T10:15:53.852Z,5.40
2019-02-22T10:18:22.635Z,5.40
2019-02-22T10:20:51.511Z,5.60
2019-02-22T10:23:20.305Z,5.80
2019-02-22T10:25:49.239Z,5.70
2019-02-22T10:28:18.293Z,5.90
2019-02-22T10:30:47.350Z,5.70
2019-02-22T10:33:16.217Z,6.00
2019-02-22T10:35:45.060Z,6.70
2019-02-22T10:38:13.976Z,8.10
2019-02-22T10:40:42.850Z,9.60
2019-02-22T10:43:11.689Z,11.30
2019-02-22T10:45:40.478Z,12.70
2019-02-22T10:48:09.277Z,14.00
2019-02-22T10:50:38.105Z,14.90
2019-02-22T10:53:06.974Z,15.70
2019-02-22T10:55:35.795Z,16.90
2019-02-22T10:58:04.731Z,16.40
2019-02-22T11:00:33.605Z,15.90
2019-02-22T11:03:02.443Z,15.10
2019-02-22T11:05:31.343Z,15.80
2019-02-22T11:08:00.140Z,15.70
2019-02-22T11:10:28.947Z,16.10
2019-02-22T11:12:57.899Z,15.90
2019-02-22T11:15:26.716Z,16.60
2019-02-22T11:17:55.588Z,17.10
2019-02-22T11:20:24.433Z,17.20
2019-02-22T11:22:53.310Z,18.20
2019-02-22T11:25:22.081Z,19.30
2019-02-22T11:27:51.052Z,19.80
2019-02-22T11:30:19.903Z,20.60
2019-02-22T11:32:48.678Z,18.90
2019-02-22T11:35:17.651Z,18.20
2019-02-22T11:37:46.712Z,18.50
2019-02-22T11:40:15.639Z,18.70
2019-02-22T11:42:44.423Z,18.70
2019-02-22T11:45:13.220Z,17.80
2019-02-22T11:47:42.018Z,18.00
2019-02-22T11:50:10.938Z,18.00
2019-02-22T11:52:39.870Z,17.70
2019-02-22T11:55:08.989Z,19.60
2019-02-22T11:57:40.847Z,20.90
2019-02-22T12:00:12.464Z,21.60
2019-02-22T12:02:41.385Z,21.10
2019-02-22T12:05:10.315Z,20.30
2019-02-22T12:07:39.160Z,19.50
2019-02-22T12:10:08.135Z,20.20
2019-02-22T12:12:36.993Z,22.00
2019-02-22T12:15:06.178Z,22.70
2019-02-22T12:17:35.145Z,22.60
2019-02-22T12:20:04.018Z,21.50
2019-02-22T12:22:32.792Z,22.10
2019-02-22T12:25:01.580Z,21.90
2019-02-22T12:27:30.386Z,20.40
2019-02-22T12:29:59.215Z,20.20
2019-02-22T12:32:28.093Z,20.40
2019-02-22T12:34:57.027Z,20.60
2019-02-22T12:37:25.878Z,21.60
2019-02-22T12:39:54.915Z,22.10
2019-02-22T12:42:23.728Z,20.80
2019-02-22T12:45:02.483Z,21.70
2019-02-22T12:47:23.359Z,22.60
2019-02-22T12:49:52.125Z,22.80
2019-02-22T12:52:23.852Z,21.60
2019-02-22T12:54:55.906Z,22.40
2019-02-22T12:57:34.612Z,24.10
2019-02-22T13:00:08.050Z,21.40
2019-02-22T13:03:01.266Z,20.60
2019-02-22T13:05:20.650Z,17.60
2019-02-22T13:07:48.941Z,15.80
2019-02-22T13:10:19.310Z,14.50
2019-02-22T13:12:52.519Z,12.90
2019-02-22T13:15:21.049Z,12.00
2019-02-22T13:17:50.145Z,11.50
2019-02-22T13:20:18.938Z,10.90
2019-02-22T13:22:46.916Z,10.30
2019-02-22T13:25:18.776Z,10.40
2019-02-22T13:27:50.498Z,10.30
2019-02-22T13:30:18.465Z,9.60
2019-02-22T13:32:47.150Z,9.50
2019-02-22T13:35:15.606Z,8.90
2019-02-22T13:37:43.782Z,8.10
2019-02-22T13:40:12.409Z,7.70
2019-02-22T13:42:40.334Z,7.70
2019-02-22T13:45:08.621Z,7.40
2019-02-22T13:47:36.541Z,7.40
2019-02-22T13:50:04.814Z,7.50
2019-02-22T13:52:32.811Z,9.20
2019-02-22T13:55:00.725Z,12.00
2019-02-22T13:57:30.331Z,14.70
2019-02-22T13:59:58.406Z,15.60
2019-02-22T14:02:26.292Z,16.70
2019-02-22T14:04:54.324Z,18.20
2019-02-22T14:07:50.144Z,18.80
2019-02-22T14:10:19.489Z,18.30
2019-02-22T14:12:48.245Z,17.20
2019-02-22T14:15:18.818Z,16.10
2019-02-22T14:17:47.561Z,14.80
2019-02-22T14:20:16.485Z,13.20
2019-02-22T14:22:44.439Z,12.30
2019-02-22T14:25:12.464Z,11.00
2019-02-22T14:27:40.415Z,10.00
2019-02-22T14:30:09.260Z,9.50
2019-02-22T14:32:37.219Z,9.40
2019-02-22T14:35:05.452Z,9.10
2019-02-22T14:37:33.458Z,8.60
2019-02-22T14:40:03.874Z,8.60
2019-02-22T14:42:31.102Z,8.40
2019-02-22T14:45:01.280Z,8.30
2019-02-22T14:47:28.727Z,8.10
2019-02-22T14:49:56.598Z,7.90
2019-02-22T14:52:24.603Z,7.70
2019-02-22T14:54:52.503Z,7.50
2019-02-22T14:57:20.387Z,7.40
2019-02-22T14:59:48.312Z,7.20
2019-02-22T15:02:16.409Z,7.00
2019-02-22T15:04:44.353Z,6.90
2019-02-22T15:07:12.264Z,7.00
2019-02-22T15:09:40.217Z,6.90
2019-02-22T15:12:08.196Z,6.90
2019-02-22T15:14:36.196Z,6.90
2019-02-22T15:17:41.754Z,6.70
2019-02-22T15:20:09.816Z,6.70
2019-02-22T15:22:37.823Z,6.60
2019-02-22T15:25:06.822Z,6.50
2019-02-22T15:27:36.342Z,6.40
2019-02-22T15:30:04.674Z,6.50
2019-02-22T15:32:32.646Z,6.50
2019-02-22T15:35:00.604Z,6.50
2019-02-22T15:37:28.514Z,6.40
2019-02-22T15:39:56.438Z,6.20
2019-02-22T15:42:24.484Z,6.10
2019-02-22T15:44:52.535Z,6.00
2019-02-22T15:47:20.576Z,6.00
2019-02-22T15:49:49.135Z,5.90
2019-02-22T15:52:17.207Z,5.80
2019-02-22T15:54:47.913Z,5.80
2019-02-22T15:57:15.999Z,5.80
2019-02-22T15:59:44.007Z,5.90
2019-02-22T16:02:12.004Z,5.90
2019-02-22T16:04:45.251Z,6.00
2019-02-22T16:07:13.566Z,6.10
2019-02-22T16:09:41.539Z,5.90
2019-02-22T16:12:09.528Z,5.90
2019-02-22T16:14:37.582Z,5.80
2019-02-22T16:17:05.610Z,5.80
2019-02-22T16:19:33.514Z,5.70
2019-02-22T16:22:01.523Z,5.70
2019-02-22T16:24:29.400Z,5.80
2019-02-22T16:27:03.343Z,5.90
2019-02-22T16:29:31.956Z,6.00
2019-02-22T16:31:59.925Z,5.90
2019-02-22T16:34:27.924Z,5.80
2019-02-22T16:36:56.011Z,5.60
2019-02-22T16:39:23.937Z,5.50
2019-02-22T16:41:51.931Z,5.40
2019-02-22T16:44:19.943Z,5.20
2019-02-22T16:46:48.117Z,5.10
2019-02-22T16:49:16.103Z,5.20
2019-02-22T16:51:44.092Z,5.10
2019-02-22T16:54:12.127Z,5.00
2019-02-22T16:56:40.024Z,5.00
2019-02-22T16:59:07.937Z,5.00
2019-02-22T17:01:35.807Z,4.90
2019-02-22T17:04:03.705Z,4.80
2019-02-22T17:06:31.729Z,4.70
2019-02-22T17:08:59.686Z,4.60
2019-02-22T17:11:27.603Z,4.60
2019-02-22T17:13:55.568Z,4.70
2019-02-22T17:16:23.500Z,4.80
2019-02-22T17:18:51.478Z,4.90
2019-02-22T17:21:19.523Z,4.90
2019-02-22T17:23:47.517Z,4.90
2019-02-22T17:26:15.906Z,4.80
2019-02-22T17:28:43.813Z,4.80
2019-02-22T17:31:11.839Z,4.90
2019-02-22T17:33:39.740Z,5.00
2019-02-22T17:36:07.671Z,5.00
2019-02-22T17:38:35.788Z,4.90
2019-02-22T17:41:04.020Z,4.80
2019-02-22T17:43:32.014Z,4.70
2019-02-22T17:45:59.917Z,4.60
2019-02-22T17:48:27.881Z,4.60
2019-02-22T17:50:55.793Z,4.60
2019-02-22T17:53:23.726Z,4.60
2019-02-22T17:55:51.651Z,4.60
2019-02-22T17:58:24.387Z,4.60
2019-02-22T18:00:49.623Z,4.70
2019-02-22T18:03:17.537Z,4.70
2019-02-22T18:05:45.558Z,4.50
2019-02-22T18:08:16.030Z,4.40
2019-02-22T18:10:43.918Z,4.20
2019-02-22T18:13:12.581Z,4.00
2019-02-22T18:15:40.598Z,3.90
2019-02-22T18:18:08.569Z,3.90
2019-02-22T18:20:36.564Z,3.80
2019-02-22T18:23:04.540Z,3.70
2019-02-22T18:25:32.544Z,3.70
2019-02-22T18:28:00.491Z,3.60
2019-02-22T18:30:28.420Z,3.60
2019-02-22T18:32:56.443Z,3.50
2019-02-22T18:35:24.529Z,3.50
2019-02-22T18:37:52.507Z,3.50
2019-02-22T18:40:20.629Z,3.50
2019-02-22T18:42:48.567Z,3.50
2019-02-22T18:45:16.633Z,3.40
2019-02-22T18:47:44.607Z,3.50
2019-02-22T18:50:12.674Z,3.50
2019-02-22T18:52:40.633Z,3.50
2019-02-22T18:55:08.671Z,3.50
2019-02-22T18:57:36.571Z,3.60
2019-02-22T19:00:07.545Z,3.60
2019-02-22T19:02:34.837Z,3.50
2019-02-22T19:05:02.767Z,3.40
2019-02-22T19:07:30.655Z,3.30
2019-02-22T19:09:58.577Z,3.40
2019-02-22T19:12:26.460Z,3.40
2019-02-22T19:14:54.365Z,3.30
2019-02-22T19:17:30.159Z,3.30
2019-02-22T19:19:51.969Z,3.20
2019-02-22T19:22:19.971Z,3.20
2019-02-22T19:24:48.037Z,3.20
2019-02-22T19:27:16.044Z,3.10
2019-02-22T19:29:43.997Z,3.10
2019-02-22T19:32:11.938Z,3.00
2019-02-22T19:34:39.971Z,3.00
2019-02-22T19:37:09.061Z,2.90
2019-02-22T19:39:37.246Z,2.90
2019-02-22T19:42:05.213Z,2.90
2019-02-22T19:44:35.192Z,2.80
2019-02-22T19:47:03.346Z,2.90
2019-02-22T19:49:31.332Z,2.90
2019-02-22T19:51:59.240Z,2.90
2019-02-22T19:54:27.280Z,2.90
2019-02-22T19:56:55.501Z,2.90
2019-02-22T19:59:23.425Z,2.80
2019-02-22T20:01:51.314Z,2.80
2019-02-22T20:04:19.244Z,2.80
2019-02-22T20:06:47.181Z,2.80
2019-02-22T20:09:15.139Z,2.70
2019-02-22T20:11:43.147Z,2.80
2019-02-22T20:14:11.080Z,2.70
2019-02-22T20:16:38.986Z,2.70
2019-02-22T20:19:06.981Z,2.70
2019-02-22T20:21:34.947Z,2.70
2019-02-22T20:24:02.870Z,2.70
2019-02-22T20:26:30.856Z,2.70
2019-02-22T20:28:58.828Z,2.70
2019-02-22T20:31:26.868Z,2.70
2019-02-22T20:33:54.949Z,2.70
2019-02-22T20:36:28.367Z,2.70
2019-02-22T20:38:52.739Z,2.60
2019-02-22T20:41:20.771Z,2.70
2019-02-22T20:43:48.842Z,2.70
2019-02-22T20:46:16.834Z,2.80
2019-02-22T20:48:44.784Z,2.80
2019-02-22T20:51:12.790Z,2.70
2019-02-22T20:53:40.742Z,2.60
2019-02-22T20:56:15.020Z,2.60
2019-02-22T20:58:46.209Z,2.60
2019-02-22T21:01:15.037Z,2.60
2019-02-22T21:03:43.168Z,2.60
2019-02-22T21:06:11.252Z,2.50
2019-02-22T21:08:40.793Z,2.60
2019-02-22T21:11:08.771Z,2.50
2019-02-22T21:13:36.660Z,2.40
2019-02-22T21:16:04.543Z,2.30
2019-02-22T21:18:32.677Z,2.30
2019-02-22T21:21:00.567Z,2.30
2019-02-22T21:23:28.457Z,2.30
2019-02-22T21:25:56.351Z,2.30
2019-02-22T21:28:24.408Z,2.20
2019-02-22T21:30:52.340Z,2.20
2019-02-22T21:33:20.260Z,2.10
2019-02-22T21:35:48.313Z,2.10
2019-02-22T21:38:16.414Z,2.00
2019-02-22T21:40:44.524Z,1.90
2019-02-22T21:43:12.469Z,2.00
2019-02-22T21:45:40.378Z,1.90
2019-02-22T21:48:08.335Z,1.90
2019-02-22T21:50:36.297Z,1.90
2019-02-22T21:53:06.746Z,1.90
2019-02-22T21:55:34.741Z,1.90
2019-02-22T21:58:02.762Z,1.80
2019-02-22T22:00:30.775Z,1.80
2019-02-22T22:02:58.698Z,1.80
2019-02-22T22:05:26.690Z,1.70
2019-02-22T22:07:54.794Z,1.70
2019-02-22T22:10:22.737Z,1.60
2019-02-22T22:12:50.734Z,1.60
2019-02-22T22:15:18.737Z,1.50
2019-02-22T22:17:46.693Z,1.50
2019-02-22T22:20:14.627Z,1.50
2019-02-22T22:22:42.542Z,1.50
2019-02-22T22:25:10.557Z,1.40
2019-02-22T22:27:38.618Z,1.30
2019-02-22T22:30:08.447Z,1.30
2019-02-22T22:32:36.427Z,1.20
2019-02-22T22:35:04.528Z,1.20
2019-02-22T22:37:32.498Z,1.30
2019-02-22T22:40:00.507Z,1.30
2019-02-22T22:42:28.973Z,1.30
2019-02-22T22:44:57.044Z,1.30
2019-02-22T22:47:25.199Z,1.30
2019-02-22T22:49:53.097Z,1.30
2019-02-22T22:52:21.018Z,1.30
2019-02-22T22:54:48.898Z,1.30
2019-02-22T22:57:16.847Z,1.30
2019-02-22T22:59:44.793Z,1.20
2019-02-22T23:02:12.742Z,1.20
2019-02-22T23:04:40.689Z,1.20
2019-02-22T23:07:08.887Z,1.20
2019-02-22T23:09:36.850Z,1.20
2019-02-22T23:12:05.327Z,1.30
2019-02-22T23:14:33.540Z,1.30
2019-02-22T23:17:01.537Z,1.30
2019-02-22T23:19:29.513Z,1.30
2019-02-22T23:21:57.491Z,1.30
2019-02-22T23:24:25.602Z,1.20
2019-02-22T23:26:53.503Z,1.20
2019-02-22T23:29:21.476Z,1.10
2019-02-22T23:31:49.356Z,1.10
2019-02-22T23:34:17.262Z,1.20
2019-02-22T23:36:45.153Z,1.20
2019-02-22T23:39:13.051Z,1.30
2019-02-22T23:41:40.931Z,1.30
2019-02-22T23:44:10.705Z,1.30
2019-02-22T23:46:40.813Z,1.20
2019-02-22T23:49:13.281Z,1.20
2019-02-22T23:51:38.042Z,1.30
2019-02-22T23:54:06.004Z,1.30
2019-02-22T23:56:33.889Z,1.30
2019-02-22T23:59:01.822Z,1.30
